sensor_id;sensor_type;location;lat;lon;timestamp;P1;durP1;ratioP1;P2;durP2;ratioP2
73670;SDS011;61968;48.178;11.566;2023-04-15T00:01:51;2.25;;;1.25;;
73670;SDS011;61968;48.178;11.566;2023-04-15T00:06:48;1.92;;;1.45;;
73670;SDS011;61968;48.178;11.566;2023-04-15T00:09:17;2.80;;;1.70;;
73670;SDS011;61968;48.178;11.566;2023-04-15T00:11:43;2.47;;;1.20;;
73670;SDS011;61968;48.178;11.566;2023-04-15T00:14:10;2.25;;;1.42;;
73670;SDS011;61968;48.178;11.566;2023-04-15T00:16:38;3.45;;;1.92;;
73670;SDS011;61968;48.178;11.566;2023-04-15T00:19:05;2.35;;;1.38;;
73670;SDS011;61968;48.178;11.566;2023-04-15T00:23:58;1.67;;;1.55;;
73670;SDS011;61968;48.178;11.566;2023-04-15T00:26:25;1.48;;;1.38;;
73670;SDS011;61968;48.178;11.566;2023-04-15T00:28:51;4.35;;;1.92;;
73670;SDS011;61968;48.178;11.566;2023-04-15T00:33:46;2.13;;;1.00;;
73670;SDS011;61968;48.178;11.566;2023-04-15T00:36:12;2.60;;;1.50;;
73670;SDS011;61968;48.178;11.566;2023-04-15T00:38:39;4.38;;;1.52;;
73670;SDS011;61968;48.178;11.566;2023-04-15T00:43:33;2.05;;;1.40;;
73670;SDS011;61968;48.178;11.566;2023-04-15T00:45:59;1.88;;;1.55;;
73670;SDS011;61968;48.178;11.566;2023-04-15T00:48:28;5.70;;;1.67;;
73670;SDS011;61968;48.178;11.566;2023-04-15T00:50:57;3.42;;;1.77;;
73670;SDS011;61968;48.178;11.566;2023-04-15T00:53:23;2.38;;;1.42;;
73670;SDS011;61968;48.178;11.566;2023-04-15T00:58:16;4.40;;;1.95;;
73670;SDS011;61968;48.178;11.566;2023-04-15T01:00:43;3.97;;;2.20;;
73670;SDS011;61968;48.178;11.566;2023-04-15T01:03:10;11.98;;;2.53;;
73670;SDS011;61968;48.178;11.566;2023-04-15T01:05:37;5.65;;;2.05;;
73670;SDS011;61968;48.178;11.566;2023-04-15T01:08:05;4.75;;;2.47;;
73670;SDS011;61968;48.178;11.566;2023-04-15T01:10:32;5.68;;;2.22;;
73670;SDS011;61968;48.178;11.566;2023-04-15T01:12:59;4.70;;;2.35;;
73670;SDS011;61968;48.178;11.566;2023-04-15T01:15:26;2.60;;;2.20;;
73670;SDS011;61968;48.178;11.566;2023-04-15T01:20:19;4.97;;;2.47;;
73670;SDS011;61968;48.178;11.566;2023-04-15T01:22:46;4.53;;;2.08;;
73670;SDS011;61968;48.178;11.566;2023-04-15T01:25:16;4.30;;;2.47;;
73670;SDS011;61968;48.178;11.566;2023-04-15T01:27:45;3.00;;;2.50;;
73670;SDS011;61968;48.178;11.566;2023-04-15T01:30:11;2.00;;;1.80;;
73670;SDS011;61968;48.178;11.566;2023-04-15T01:35:05;2.55;;;2.05;;
73670;SDS011;61968;48.178;11.566;2023-04-15T01:37:31;4.25;;;1.83;;
73670;SDS011;61968;48.178;11.566;2023-04-15T01:39:58;5.65;;;2.20;;
73670;SDS011;61968;48.178;11.566;2023-04-15T01:44:53;4.78;;;1.77;;
73670;SDS011;61968;48.178;11.566;2023-04-15T01:47:19;4.22;;;1.80;;
73670;SDS011;61968;48.178;11.566;2023-04-15T01:49:46;4.10;;;1.80;;
73670;SDS011;61968;48.178;11.566;2023-04-15T01:54:39;2.90;;;1.75;;
73670;SDS011;61968;48.178;11.566;2023-04-15T01:57:06;5.63;;;2.03;;
73670;SDS011;61968;48.178;11.566;2023-04-15T01:59:33;1.70;;;1.60;;
73670;SDS011;61968;48.178;11.566;2023-04-15T02:02:01;3.75;;;2.03;;
73670;SDS011;61968;48.178;11.566;2023-04-15T02:04:28;3.25;;;2.05;;
73670;SDS011;61968;48.178;11.566;2023-04-15T02:09:21;3.80;;;1.98;;
73670;SDS011;61968;48.178;11.566;2023-04-15T02:14:14;1.92;;;1.80;;
73670;SDS011;61968;48.178;11.566;2023-04-15T02:16:40;5.88;;;2.97;;
73670;SDS011;61968;48.178;11.566;2023-04-15T02:21:34;2.80;;;1.80;;
73670;SDS011;61968;48.178;11.566;2023-04-15T02:26:28;2.03;;;1.83;;
73670;SDS011;61968;48.178;11.566;2023-04-15T02:28:56;4.07;;;1.95;;
73670;SDS011;61968;48.178;11.566;2023-04-15T02:33:49;4.90;;;1.80;;
73670;SDS011;61968;48.178;11.566;2023-04-15T02:38:45;2.90;;;2.33;;
73670;SDS011;61968;48.178;11.566;2023-04-15T02:41:11;2.88;;;2.08;;
73670;SDS011;61968;48.178;11.566;2023-04-15T02:43:38;4.13;;;2.05;;
73670;SDS011;61968;48.178;11.566;2023-04-15T02:46:04;4.03;;;2.58;;
73670;SDS011;61968;48.178;11.566;2023-04-15T02:48:31;5.35;;;2.20;;
73670;SDS011;61968;48.178;11.566;2023-04-15T02:51:10;6.03;;;2.38;;
73670;SDS011;61968;48.178;11.566;2023-04-15T02:53:39;3.65;;;2.10;;
73670;SDS011;61968;48.178;11.566;2023-04-15T02:56:06;4.20;;;2.13;;
73670;SDS011;61968;48.178;11.566;2023-04-15T02:58:33;2.35;;;1.98;;
73670;SDS011;61968;48.178;11.566;2023-04-15T03:01:00;2.83;;;2.20;;
73670;SDS011;61968;48.178;11.566;2023-04-15T03:05:53;3.22;;;2.20;;
73670;SDS011;61968;48.178;11.566;2023-04-15T03:10:47;4.07;;;1.70;;
73670;SDS011;61968;48.178;11.566;2023-04-15T03:13:16;4.85;;;2.13;;
73670;SDS011;61968;48.178;11.566;2023-04-15T03:18:09;4.78;;;2.35;;
73670;SDS011;61968;48.178;11.566;2023-04-15T03:20:35;1.70;;;1.60;;
73670;SDS011;61968;48.178;11.566;2023-04-15T03:25:28;4.90;;;1.90;;
73670;SDS011;61968;48.178;11.566;2023-04-15T03:27:56;4.03;;;2.40;;
73670;SDS011;61968;48.178;11.566;2023-04-15T03:30:22;4.93;;;1.95;;
73670;SDS011;61968;48.178;11.566;2023-04-15T03:32:49;3.55;;;1.67;;
73670;SDS011;61968;48.178;11.566;2023-04-15T03:37:41;3.03;;;2.08;;
73670;SDS011;61968;48.178;11.566;2023-04-15T03:40:08;2.20;;;1.67;;
73670;SDS011;61968;48.178;11.566;2023-04-15T03:42:35;3.30;;;1.88;;
73670;SDS011;61968;48.178;11.566;2023-04-15T03:45:03;4.80;;;2.33;;
73670;SDS011;61968;48.178;11.566;2023-04-15T03:47:31;2.40;;;1.73;;
73670;SDS011;61968;48.178;11.566;2023-04-15T03:49:58;1.77;;;1.63;;
73670;SDS011;61968;48.178;11.566;2023-04-15T03:52:24;4.53;;;1.58;;
73670;SDS011;61968;48.178;11.566;2023-04-15T03:54:50;3.72;;;2.20;;
73670;SDS011;61968;48.178;11.566;2023-04-15T03:57:17;6.35;;;2.28;;
73670;SDS011;61968;48.178;11.566;2023-04-15T03:59:43;2.35;;;1.73;;
73670;SDS011;61968;48.178;11.566;2023-04-15T04:04:37;2.63;;;2.10;;
73670;SDS011;61968;48.178;11.566;2023-04-15T04:07:04;2.55;;;1.90;;
73670;SDS011;61968;48.178;11.566;2023-04-15T04:09:30;3.13;;;2.13;;
73670;SDS011;61968;48.178;11.566;2023-04-15T04:11:57;2.08;;;1.60;;
73670;SDS011;61968;48.178;11.566;2023-04-15T04:14:23;3.67;;;1.88;;
73670;SDS011;61968;48.178;11.566;2023-04-15T04:16:53;5.47;;;1.98;;
73670;SDS011;61968;48.178;11.566;2023-04-15T04:19:21;4.30;;;1.50;;
73670;SDS011;61968;48.178;11.566;2023-04-15T04:21:48;2.15;;;1.90;;
73670;SDS011;61968;48.178;11.566;2023-04-15T04:26:41;3.08;;;1.30;;
73670;SDS011;61968;48.178;11.566;2023-04-15T04:29:07;3.88;;;1.58;;
73670;SDS011;61968;48.178;11.566;2023-04-15T04:31:34;4.78;;;1.50;;
73670;SDS011;61968;48.178;11.566;2023-04-15T04:36:28;1.58;;;1.42;;
73670;SDS011;61968;48.178;11.566;2023-04-15T04:38:54;4.50;;;1.85;;
73670;SDS011;61968;48.178;11.566;2023-04-15T04:41:21;2.60;;;1.60;;
73670;SDS011;61968;48.178;11.566;2023-04-15T04:46:14;2.50;;;1.48;;
73670;SDS011;61968;48.178;11.566;2023-04-15T04:48:40;3.65;;;1.50;;
73670;SDS011;61968;48.178;11.566;2023-04-15T04:51:06;4.82;;;2.25;;
73670;SDS011;61968;48.178;11.566;2023-04-15T04:56:01;2.70;;;1.40;;
73670;SDS011;61968;48.178;11.566;2023-04-15T04:58:28;5.53;;;2.03;;
73670;SDS011;61968;48.178;11.566;2023-04-15T05:00:54;3.63;;;1.75;;
73670;SDS011;61968;48.178;11.566;2023-04-15T05:03:22;4.18;;;1.73;;
73670;SDS011;61968;48.178;11.566;2023-04-15T05:08:15;4.15;;;2.13;;
73670;SDS011;61968;48.178;11.566;2023-04-15T05:10:43;4.45;;;2.17;;
73670;SDS011;61968;48.178;11.566;2023-04-15T05:13:09;5.22;;;2.35;;
73670;SDS011;61968;48.178;11.566;2023-04-15T05:18:05;9.50;;;2.92;;
73670;SDS011;61968;48.178;11.566;2023-04-15T05:20:31;8.50;;;2.15;;
73670;SDS011;61968;48.178;11.566;2023-04-15T05:25:24;6.05;;;2.08;;
73670;SDS011;61968;48.178;11.566;2023-04-15T05:27:52;4.85;;;1.90;;
73670;SDS011;61968;48.178;11.566;2023-04-15T05:30:18;3.33;;;1.90;;
73670;SDS011;61968;48.178;11.566;2023-04-15T05:32:46;2.10;;;1.52;;
73670;SDS011;61968;48.178;11.566;2023-04-15T05:37:39;2.00;;;1.60;;
73670;SDS011;61968;48.178;11.566;2023-04-15T05:40:05;4.82;;;1.73;;
73670;SDS011;61968;48.178;11.566;2023-04-15T05:42:34;4.50;;;1.58;;
73670;SDS011;61968;48.178;11.566;2023-04-15T05:49:59;3.13;;;1.45;;
73670;SDS011;61968;48.178;11.566;2023-04-15T05:54:52;2.60;;;1.40;;
73670;SDS011;61968;48.178;11.566;2023-04-15T05:57:18;1.55;;;1.00;;
73670;SDS011;61968;48.178;11.566;2023-04-15T06:02:12;3.95;;;1.58;;
73670;SDS011;61968;48.178;11.566;2023-04-15T06:04:39;3.70;;;1.10;;
73670;SDS011;61968;48.178;11.566;2023-04-15T06:07:06;2.08;;;1.55;;
73670;SDS011;61968;48.178;11.566;2023-04-15T06:09:33;1.88;;;1.27;;
73670;SDS011;61968;48.178;11.566;2023-04-15T06:12:00;4.63;;;1.75;;
73670;SDS011;61968;48.178;11.566;2023-04-15T06:14:27;4.32;;;1.52;;
73670;SDS011;61968;48.178;11.566;2023-04-15T06:16:53;4.30;;;1.75;;
73670;SDS011;61968;48.178;11.566;2023-04-15T06:19:21;3.75;;;1.30;;
73670;SDS011;61968;48.178;11.566;2023-04-15T06:21:48;1.77;;;1.17;;
73670;SDS011;61968;48.178;11.566;2023-04-15T06:24:15;2.35;;;1.35;;
73670;SDS011;61968;48.178;11.566;2023-04-15T06:26:42;3.53;;;1.63;;
73670;SDS011;61968;48.178;11.566;2023-04-15T06:31:34;2.42;;;0.90;;
73670;SDS011;61968;48.178;11.566;2023-04-15T06:34:01;2.80;;;1.15;;
73670;SDS011;61968;48.178;11.566;2023-04-15T06:38:56;5.07;;;1.73;;
73670;SDS011;61968;48.178;11.566;2023-04-15T06:41:23;1.00;;;1.00;;
73670;SDS011;61968;48.178;11.566;2023-04-15T06:43:50;2.22;;;1.10;;
73670;SDS011;61968;48.178;11.566;2023-04-15T06:48:42;2.38;;;1.05;;
73670;SDS011;61968;48.178;11.566;2023-04-15T06:51:09;3.83;;;1.40;;
73670;SDS011;61968;48.178;11.566;2023-04-15T06:53:37;4.35;;;1.55;;
73670;SDS011;61968;48.178;11.566;2023-04-15T06:56:05;3.00;;;1.10;;
73670;SDS011;61968;48.178;11.566;2023-04-15T06:58:33;1.55;;;1.00;;
73670;SDS011;61968;48.178;11.566;2023-04-15T07:03:25;5.03;;;1.27;;
73670;SDS011;61968;48.178;11.566;2023-04-15T07:05:52;1.75;;;1.10;;
73670;SDS011;61968;48.178;11.566;2023-04-15T07:08:18;2.55;;;1.35;;
73670;SDS011;61968;48.178;11.566;2023-04-15T07:10:47;1.13;;;0.90;;
73670;SDS011;61968;48.178;11.566;2023-04-15T07:13:13;2.55;;;1.35;;
73670;SDS011;61968;48.178;11.566;2023-04-15T07:15:40;2.00;;;1.25;;
73670;SDS011;61968;48.178;11.566;2023-04-15T07:20:33;3.03;;;1.67;;
73670;SDS011;61968;48.178;11.566;2023-04-15T07:23:00;8.13;;;2.20;;
73670;SDS011;61968;48.178;11.566;2023-04-15T07:25:26;5.72;;;1.60;;
73670;SDS011;61968;48.178;11.566;2023-04-15T07:30:20;1.05;;;0.95;;
73670;SDS011;61968;48.178;11.566;2023-04-15T07:35:13;1.92;;;1.33;;
73670;SDS011;61968;48.178;11.566;2023-04-15T07:40:07;2.45;;;1.30;;
73670;SDS011;61968;48.178;11.566;2023-04-15T07:42:34;1.30;;;0.93;;
73670;SDS011;61968;48.178;11.566;2023-04-15T07:45:03;1.05;;;0.88;;
73670;SDS011;61968;48.178;11.566;2023-04-15T07:47:30;2.58;;;1.23;;
73670;SDS011;61968;48.178;11.566;2023-04-15T07:52:22;4.80;;;1.25;;
73670;SDS011;61968;48.178;11.566;2023-04-15T07:57:15;1.05;;;0.90;;
73670;SDS011;61968;48.178;11.566;2023-04-15T07:59:42;3.85;;;0.93;;
73670;SDS011;61968;48.178;11.566;2023-04-15T08:04:38;2.65;;;1.20;;
73670;SDS011;61968;48.178;11.566;2023-04-15T08:09:31;1.13;;;0.95;;
73670;SDS011;61968;48.178;11.566;2023-04-15T08:11:58;3.45;;;1.45;;
73670;SDS011;61968;48.178;11.566;2023-04-15T08:14:25;1.58;;;0.80;;
73670;SDS011;61968;48.178;11.566;2023-04-15T08:16:51;1.48;;;1.02;;
73670;SDS011;61968;48.178;11.566;2023-04-15T08:21:45;2.50;;;1.50;;
73670;SDS011;61968;48.178;11.566;2023-04-15T08:24:12;2.85;;;1.30;;
73670;SDS011;61968;48.178;11.566;2023-04-15T08:29:04;2.78;;;1.13;;
73670;SDS011;61968;48.178;11.566;2023-04-15T08:33:58;1.88;;;1.10;;
73670;SDS011;61968;48.178;11.566;2023-04-15T08:36:25;1.65;;;1.23;;
73670;SDS011;61968;48.178;11.566;2023-04-15T08:38:52;1.98;;;1.40;;
73670;SDS011;61968;48.178;11.566;2023-04-15T08:43:48;2.03;;;1.60;;
73670;SDS011;61968;48.178;11.566;2023-04-15T08:46:19;5.05;;;2.72;;
73670;SDS011;61968;48.178;11.566;2023-04-15T08:48:46;3.97;;;1.83;;
73670;SDS011;61968;48.178;11.566;2023-04-15T08:51:13;3.00;;;2.10;;
73670;SDS011;61968;48.178;11.566;2023-04-15T08:53:41;5.78;;;1.58;;
73670;SDS011;61968;48.178;11.566;2023-04-15T08:56:08;3.55;;;1.50;;
73670;SDS011;61968;48.178;11.566;2023-04-15T08:58:36;5.38;;;2.40;;
73670;SDS011;61968;48.178;11.566;2023-04-15T09:01:03;2.17;;;1.80;;
73670;SDS011;61968;48.178;11.566;2023-04-15T09:03:30;3.53;;;1.95;;
73670;SDS011;61968;48.178;11.566;2023-04-15T09:05:57;7.15;;;2.00;;
73670;SDS011;61968;48.178;11.566;2023-04-15T09:08:24;2.00;;;1.45;;
73670;SDS011;61968;48.178;11.566;2023-04-15T09:10:52;1.95;;;1.02;;
73670;SDS011;61968;48.178;11.566;2023-04-15T09:13:19;1.88;;;1.52;;
73670;SDS011;61968;48.178;11.566;2023-04-15T09:15:46;3.35;;;2.05;;
73670;SDS011;61968;48.178;11.566;2023-04-15T09:18:13;4.00;;;1.63;;
73670;SDS011;61968;48.178;11.566;2023-04-15T09:20:51;4.07;;;1.65;;
73670;SDS011;61968;48.178;11.566;2023-04-15T09:23:18;3.08;;;1.42;;
73670;SDS011;61968;48.178;11.566;2023-04-15T09:25:45;3.28;;;1.52;;
73670;SDS011;61968;48.178;11.566;2023-04-15T09:28:14;4.78;;;1.75;;
73670;SDS011;61968;48.178;11.566;2023-04-15T09:30:50;4.18;;;2.15;;
73670;SDS011;61968;48.178;11.566;2023-04-15T09:33:17;2.20;;;1.95;;
73670;SDS011;61968;48.178;11.566;2023-04-15T09:35:47;2.55;;;1.83;;
73670;SDS011;61968;48.178;11.566;2023-04-15T09:38:22;3.40;;;1.95;;
73670;SDS011;61968;48.178;11.566;2023-04-15T09:40:49;4.75;;;2.53;;
73670;SDS011;61968;48.178;11.566;2023-04-15T09:43:17;2.22;;;2.03;;
73670;SDS011;61968;48.178;11.566;2023-04-15T09:45:46;5.57;;;2.10;;
73670;SDS011;61968;48.178;11.566;2023-04-15T09:48:14;3.22;;;2.25;;
73670;SDS011;61968;48.178;11.566;2023-04-15T09:50:42;3.20;;;2.00;;
73670;SDS011;61968;48.178;11.566;2023-04-15T09:53:09;3.03;;;1.33;;
73670;SDS011;61968;48.178;11.566;2023-04-15T09:55:36;3.35;;;1.85;;
73670;SDS011;61968;48.178;11.566;2023-04-15T09:58:07;2.45;;;1.83;;
73670;SDS011;61968;48.178;11.566;2023-04-15T10:00:35;4.38;;;2.67;;
73670;SDS011;61968;48.178;11.566;2023-04-15T10:03:04;1.55;;;1.45;;
73670;SDS011;61968;48.178;11.566;2023-04-15T10:05:31;5.07;;;1.95;;
73670;SDS011;61968;48.178;11.566;2023-04-15T10:07:59;3.88;;;2.08;;
73670;SDS011;61968;48.178;11.566;2023-04-15T10:10:26;3.47;;;2.05;;
73670;SDS011;61968;48.178;11.566;2023-04-15T10:12:53;6.47;;;2.10;;
73670;SDS011;61968;48.178;11.566;2023-04-15T10:15:20;3.72;;;2.47;;
73670;SDS011;61968;48.178;11.566;2023-04-15T10:17:49;3.25;;;2.63;;
73670;SDS011;61968;48.178;11.566;2023-04-15T10:20:17;4.65;;;2.20;;
73670;SDS011;61968;48.178;11.566;2023-04-15T10:22:44;2.58;;;2.13;;
73670;SDS011;61968;48.178;11.566;2023-04-15T10:25:15;3.72;;;2.30;;
73670;SDS011;61968;48.178;11.566;2023-04-15T10:27:42;3.95;;;2.15;;
73670;SDS011;61968;48.178;11.566;2023-04-15T10:30:09;7.18;;;2.40;;
73670;SDS011;61968;48.178;11.566;2023-04-15T10:32:36;3.08;;;2.20;;
73670;SDS011;61968;48.178;11.566;2023-04-15T10:35:05;4.05;;;1.95;;
73670;SDS011;61968;48.178;11.566;2023-04-15T10:37:34;6.72;;;2.70;;
73670;SDS011;61968;48.178;11.566;2023-04-15T10:42:49;3.33;;;2.42;;
73670;SDS011;61968;48.178;11.566;2023-04-15T10:45:16;3.65;;;1.90;;
73670;SDS011;61968;48.178;11.566;2023-04-15T10:47:44;5.38;;;2.60;;
73670;SDS011;61968;48.178;11.566;2023-04-15T10:50:12;3.22;;;2.33;;
73670;SDS011;61968;48.178;11.566;2023-04-15T10:52:39;7.50;;;2.85;;
73670;SDS011;61968;48.178;11.566;2023-04-15T10:55:11;4.65;;;2.85;;
73670;SDS011;61968;48.178;11.566;2023-04-15T10:57:40;5.05;;;2.63;;
73670;SDS011;61968;48.178;11.566;2023-04-15T11:00:11;5.03;;;2.78;;
73670;SDS011;61968;48.178;11.566;2023-04-15T11:02:40;6.70;;;2.78;;
73670;SDS011;61968;48.178;11.566;2023-04-15T11:05:09;3.67;;;2.40;;
73670;SDS011;61968;48.178;11.566;2023-04-15T11:07:38;5.00;;;2.40;;
73670;SDS011;61968;48.178;11.566;2023-04-15T11:13:19;3.67;;;2.70;;
73670;SDS011;61968;48.178;11.566;2023-04-15T11:15:49;3.03;;;2.42;;
73670;SDS011;61968;48.178;11.566;2023-04-15T11:18:17;12.63;;;5.63;;
73670;SDS011;61968;48.178;11.566;2023-04-15T11:20:45;4.82;;;2.92;;
73670;SDS011;61968;48.178;11.566;2023-04-15T11:23:16;7.57;;;2.70;;
73670;SDS011;61968;48.178;11.566;2023-04-15T11:25:43;4.75;;;2.50;;
73670;SDS011;61968;48.178;11.566;2023-04-15T11:28:11;5.05;;;3.40;;
73670;SDS011;61968;48.178;11.566;2023-04-15T11:30:38;2.80;;;2.50;;
73670;SDS011;61968;48.178;11.566;2023-04-15T11:33:06;6.57;;;2.80;;
73670;SDS011;61968;48.178;11.566;2023-04-15T11:35:34;5.13;;;2.70;;
73670;SDS011;61968;48.178;11.566;2023-04-15T11:38:01;3.80;;;3.08;;
73670;SDS011;61968;48.178;11.566;2023-04-15T11:40:29;2.70;;;2.50;;
73670;SDS011;61968;48.178;11.566;2023-04-15T11:43:03;5.95;;;4.18;;
73670;SDS011;61968;48.178;11.566;2023-04-15T11:45:31;3.72;;;3.10;;
73670;SDS011;61968;48.178;11.566;2023-04-15T11:48:04;7.05;;;3.42;;
73670;SDS011;61968;48.178;11.566;2023-04-15T11:50:32;4.97;;;3.70;;
73670;SDS011;61968;48.178;11.566;2023-04-15T11:53:00;2.78;;;2.50;;
73670;SDS011;61968;48.178;11.566;2023-04-15T11:55:30;4.43;;;2.33;;
73670;SDS011;61968;48.178;11.566;2023-04-15T11:58:09;2.70;;;2.50;;
73670;SDS011;61968;48.178;11.566;2023-04-15T12:00:37;4.45;;;3.03;;
73670;SDS011;61968;48.178;11.566;2023-04-15T12:03:11;7.15;;;3.25;;
73670;SDS011;61968;48.178;11.566;2023-04-15T12:06:07;5.57;;;3.08;;
73670;SDS011;61968;48.178;11.566;2023-04-15T12:08:48;5.07;;;2.53;;
73670;SDS011;61968;48.178;11.566;2023-04-15T12:11:19;3.33;;;2.25;;
73670;SDS011;61968;48.178;11.566;2023-04-15T12:13:53;7.22;;;2.95;;
73670;SDS011;61968;48.178;11.566;2023-04-15T12:16:21;5.88;;;2.60;;
73670;SDS011;61968;48.178;11.566;2023-04-15T12:18:49;3.10;;;1.90;;
73670;SDS011;61968;48.178;11.566;2023-04-15T12:21:17;2.28;;;1.65;;
73670;SDS011;61968;48.178;11.566;2023-04-15T12:23:48;4.78;;;2.65;;
73670;SDS011;61968;48.178;11.566;2023-04-15T12:26:15;4.95;;;2.58;;
73670;SDS011;61968;48.178;11.566;2023-04-15T12:28:43;2.28;;;1.83;;
73670;SDS011;61968;48.178;11.566;2023-04-15T12:31:10;3.00;;;2.00;;
73670;SDS011;61968;48.178;11.566;2023-04-15T12:33:38;4.03;;;1.98;;
73670;SDS011;61968;48.178;11.566;2023-04-15T12:36:05;4.45;;;1.67;;
73670;SDS011;61968;48.178;11.566;2023-04-15T12:38:32;4.45;;;1.58;;
73670;SDS011;61968;48.178;11.566;2023-04-15T12:40:58;3.25;;;1.33;;
73670;SDS011;61968;48.178;11.566;2023-04-15T12:43:25;2.97;;;1.73;;
73670;SDS011;61968;48.178;11.566;2023-04-15T12:45:53;2.53;;;1.92;;
73670;SDS011;61968;48.178;11.566;2023-04-15T12:48:20;1.85;;;1.60;;
73670;SDS011;61968;48.178;11.566;2023-04-15T12:50:47;2.28;;;1.65;;
73670;SDS011;61968;48.178;11.566;2023-04-15T12:53:13;2.17;;;1.70;;
73670;SDS011;61968;48.178;11.566;2023-04-15T12:55:40;2.92;;;1.67;;
73670;SDS011;61968;48.178;11.566;2023-04-15T13:00:33;2.72;;;1.60;;
73670;SDS011;61968;48.178;11.566;2023-04-15T13:03:01;2.67;;;1.63;;
73670;SDS011;61968;48.178;11.566;2023-04-15T13:05:28;2.97;;;2.13;;
73670;SDS011;61968;48.178;11.566;2023-04-15T13:10:21;2.88;;;1.85;;
73670;SDS011;61968;48.178;11.566;2023-04-15T13:12:47;9.10;;;2.88;;
73670;SDS011;61968;48.178;11.566;2023-04-15T13:15:17;4.60;;;2.10;;
73670;SDS011;61968;48.178;11.566;2023-04-15T13:17:45;5.03;;;2.53;;
73670;SDS011;61968;48.178;11.566;2023-04-15T13:20:13;2.85;;;2.20;;
73670;SDS011;61968;48.178;11.566;2023-04-15T13:22:40;5.43;;;2.47;;
73670;SDS011;61968;48.178;11.566;2023-04-15T13:25:07;4.22;;;2.50;;
73670;SDS011;61968;48.178;11.566;2023-04-15T13:27:34;4.07;;;3.10;;
73670;SDS011;61968;48.178;11.566;2023-04-15T13:30:00;8.05;;;2.75;;
73670;SDS011;61968;48.178;11.566;2023-04-15T13:32:27;3.72;;;2.65;;
73670;SDS011;61968;48.178;11.566;2023-04-15T13:34:53;8.57;;;3.30;;
73670;SDS011;61968;48.178;11.566;2023-04-15T13:37:21;3.90;;;2.50;;
73670;SDS011;61968;48.178;11.566;2023-04-15T13:39:54;2.10;;;1.90;;
73670;SDS011;61968;48.178;11.566;2023-04-15T13:42:21;3.28;;;2.00;;
73670;SDS011;61968;48.178;11.566;2023-04-15T13:44:48;4.72;;;2.70;;
73670;SDS011;61968;48.178;11.566;2023-04-15T13:47:15;7.22;;;3.13;;
73670;SDS011;61968;48.178;11.566;2023-04-15T13:49:42;6.63;;;2.53;;
73670;SDS011;61968;48.178;11.566;2023-04-15T13:52:08;4.82;;;2.60;;
73670;SDS011;61968;48.178;11.566;2023-04-15T13:54:37;3.80;;;2.60;;
73670;SDS011;61968;48.178;11.566;2023-04-15T13:57:04;6.78;;;2.33;;
73670;SDS011;61968;48.178;11.566;2023-04-15T13:59:31;4.30;;;2.78;;
73670;SDS011;61968;48.178;11.566;2023-04-15T14:01:58;4.07;;;2.33;;
73670;SDS011;61968;48.178;11.566;2023-04-15T14:04:25;2.45;;;2.13;;
73670;SDS011;61968;48.178;11.566;2023-04-15T14:06:51;3.03;;;1.90;;
73670;SDS011;61968;48.178;11.566;2023-04-15T14:09:18;5.45;;;2.03;;
73670;SDS011;61968;48.178;11.566;2023-04-15T14:11:47;4.90;;;2.33;;
73670;SDS011;61968;48.178;11.566;2023-04-15T14:14:14;2.20;;;1.95;;
73670;SDS011;61968;48.178;11.566;2023-04-15T14:16:40;3.33;;;1.60;;
73670;SDS011;61968;48.178;11.566;2023-04-15T14:19:10;3.10;;;2.20;;
73670;SDS011;61968;48.178;11.566;2023-04-15T14:21:36;3.63;;;1.83;;
73670;SDS011;61968;48.178;11.566;2023-04-15T14:24:03;3.97;;;2.42;;
73670;SDS011;61968;48.178;11.566;2023-04-15T14:26:30;2.55;;;1.77;;
73670;SDS011;61968;48.178;11.566;2023-04-15T14:28:58;3.95;;;1.83;;
73670;SDS011;61968;48.178;11.566;2023-04-15T14:31:27;2.35;;;2.13;;
73670;SDS011;61968;48.178;11.566;2023-04-15T14:33:54;2.53;;;2.30;;
73670;SDS011;61968;48.178;11.566;2023-04-15T14:36:20;4.05;;;2.63;;
73670;SDS011;61968;48.178;11.566;2023-04-15T14:38:47;6.50;;;2.80;;
73670;SDS011;61968;48.178;11.566;2023-04-15T14:41:14;3.45;;;1.90;;
73670;SDS011;61968;48.178;11.566;2023-04-15T14:43:41;4.55;;;2.60;;
73670;SDS011;61968;48.178;11.566;2023-04-15T14:46:09;3.78;;;2.47;;
73670;SDS011;61968;48.178;11.566;2023-04-15T14:48:36;3.35;;;1.90;;
73670;SDS011;61968;48.178;11.566;2023-04-15T14:51:04;5.70;;;3.10;;
73670;SDS011;61968;48.178;11.566;2023-04-15T14:53:31;4.60;;;2.38;;
73670;SDS011;61968;48.178;11.566;2023-04-15T14:55:58;6.63;;;2.85;;
73670;SDS011;61968;48.178;11.566;2023-04-15T14:58:24;3.05;;;2.05;;
73670;SDS011;61968;48.178;11.566;2023-04-15T15:00:51;3.55;;;2.60;;
73670;SDS011;61968;48.178;11.566;2023-04-15T15:03:19;4.13;;;3.53;;
73670;SDS011;61968;48.178;11.566;2023-04-15T15:05:46;4.68;;;2.45;;
73670;SDS011;61968;48.178;11.566;2023-04-15T15:08:12;5.10;;;2.83;;
73670;SDS011;61968;48.178;11.566;2023-04-15T15:10:39;6.00;;;3.63;;
73670;SDS011;61968;48.178;11.566;2023-04-15T15:13:06;7.05;;;2.70;;
73670;SDS011;61968;48.178;11.566;2023-04-15T15:15:34;13.75;;;3.00;;
73670;SDS011;61968;48.178;11.566;2023-04-15T15:18:02;3.33;;;2.70;;
73670;SDS011;61968;48.178;11.566;2023-04-15T15:20:30;3.03;;;2.45;;
73670;SDS011;61968;48.178;11.566;2023-04-15T15:22:57;4.18;;;2.40;;
73670;SDS011;61968;48.178;11.566;2023-04-15T15:25:24;4.13;;;2.20;;
73670;SDS011;61968;48.178;11.566;2023-04-15T15:27:50;4.05;;;2.47;;
73670;SDS011;61968;48.178;11.566;2023-04-15T15:30:17;2.25;;;1.80;;
73670;SDS011;61968;48.178;11.566;2023-04-15T15:32:44;2.47;;;2.28;;
73670;SDS011;61968;48.178;11.566;2023-04-15T15:37:40;4.53;;;2.63;;
73670;SDS011;61968;48.178;11.566;2023-04-15T15:40:07;4.65;;;2.10;;
73670;SDS011;61968;48.178;11.566;2023-04-15T15:42:34;3.03;;;2.50;;
73670;SDS011;61968;48.178;11.566;2023-04-15T15:45:02;3.35;;;2.05;;
73670;SDS011;61968;48.178;11.566;2023-04-15T15:47:29;2.95;;;2.08;;
73670;SDS011;61968;48.178;11.566;2023-04-15T15:49:56;9.23;;;4.57;;
73670;SDS011;61968;48.178;11.566;2023-04-15T15:52:22;3.50;;;3.05;;
73670;SDS011;61968;48.178;11.566;2023-04-15T15:54:50;3.25;;;2.33;;
73670;SDS011;61968;48.178;11.566;2023-04-15T15:57:17;2.97;;;2.70;;
73670;SDS011;61968;48.178;11.566;2023-04-15T16:02:11;6.95;;;2.78;;
73670;SDS011;61968;48.178;11.566;2023-04-15T16:04:38;6.75;;;3.00;;
73670;SDS011;61968;48.178;11.566;2023-04-15T16:07:05;6.45;;;2.60;;
73670;SDS011;61968;48.178;11.566;2023-04-15T16:09:32;3.97;;;2.40;;
73670;SDS011;61968;48.178;11.566;2023-04-15T16:12:00;3.30;;;2.78;;
73670;SDS011;61968;48.178;11.566;2023-04-15T16:14:27;7.65;;;3.70;;
73670;SDS011;61968;48.178;11.566;2023-04-15T16:16:54;6.82;;;3.28;;
73670;SDS011;61968;48.178;11.566;2023-04-15T16:19:21;4.88;;;3.17;;
73670;SDS011;61968;48.178;11.566;2023-04-15T16:21:47;2.75;;;2.28;;
73670;SDS011;61968;48.178;11.566;2023-04-15T16:24:14;5.18;;;3.28;;
73670;SDS011;61968;48.178;11.566;2023-04-15T16:26:40;5.22;;;2.80;;
73670;SDS011;61968;48.178;11.566;2023-04-15T16:29:08;5.25;;;3.58;;
73670;SDS011;61968;48.178;11.566;2023-04-15T16:31:35;3.95;;;2.90;;
73670;SDS011;61968;48.178;11.566;2023-04-15T16:34:03;2.58;;;2.38;;
73670;SDS011;61968;48.178;11.566;2023-04-15T16:36:32;3.25;;;2.15;;
73670;SDS011;61968;48.178;11.566;2023-04-15T16:38:59;5.35;;;4.13;;
73670;SDS011;61968;48.178;11.566;2023-04-15T16:41:26;5.75;;;3.67;;
73670;SDS011;61968;48.178;11.566;2023-04-15T16:43:53;7.90;;;2.60;;
73670;SDS011;61968;48.178;11.566;2023-04-15T16:46:23;5.28;;;2.00;;
73670;SDS011;61968;48.178;11.566;2023-04-15T16:48:49;3.65;;;2.20;;
73670;SDS011;61968;48.178;11.566;2023-04-15T16:51:16;2.80;;;1.95;;